Time;durP1;ratioP1;P1;durP2;ratioP2;P2;SDS_P1;SDS_P2;PMS_P1;PMS_P2;Temp;Humidity;BMP_temperature;BMP_pressure;BME280_temperature;BME280_humidity;BME280_pressure;Samples;Min_cycle;Max_cycle;Signal;HPM_P1;HPM_P2
2021/03/18 00:01:39;;;;;;;9.85;3.62;;;1.70;99.90;;;;;;1898632;75;21084;-75
2021/03/18 00:04:05;;;;;;;9.23;3.58;;;1.80;99.90;;;;;;1902264;74;21118;-75
2021/03/18 00:06:31;;;;;;;6.62;3.10;;;1.80;99.90;;;;;;1908103;75;21201;-76
2021/03/18 00:08:57;;;;;;;4.60;3.45;;;1.80;99.90;;;;;;1912703;75;21146;-75
2021/03/18 00:11:23;;;;;;;4.45;3.55;;;1.80;99.90;;;;;;1913720;75;21168;-75
2021/03/18 00:13:49;;;;;;;4.12;3.27;;;1.90;99.90;;;;;;1907252;75;21163;-75
2021/03/18 00:16:15;;;;;;;4.60;2.98;;;1.90;99.90;;;;;;1900909;75;21149;-73
2021/03/18 00:18:42;;;;;;;5.28;3.80;;;1.80;99.90;;;;;;1898516;75;21130;-76
2021/03/18 00:21:08;;;;;;;4.17;3.52;;;1.90;99.90;;;;;;1898966;75;21161;-76
2021/03/18 00:23:34;;;;;;;6.08;3.70;;;1.80;99.90;;;;;;1903886;75;21088;-76
2021/03/18 00:26:00;;;;;;;7.25;3.65;;;1.70;99.90;;;;;;1900687;75;21152;-76
2021/03/18 00:28:26;;;;;;;5.70;3.47;;;1.80;99.90;;;;;;1896324;75;21158;-75
2021/03/18 00:30:52;;;;;;;4.22;3.25;;;1.80;99.90;;;;;;1896283;75;21091;-75
2021/03/18 00:33:18;;;;;;;4.80;3.75;;;1.90;99.90;;;;;;1873625;75;21063;-75
2021/03/18 00:35:44;;;;;;;5.58;3.80;;;1.80;99.90;;;;;;1902095;75;21056;-75
2021/03/18 00:38:11;;;;;;;4.33;3.45;;;1.80;99.90;;;;;;1896869;75;21177;-75
2021/03/18 00:40:37;;;;;;;3.50;3.20;;;1.80;99.90;;;;;;1900619;75;21079;-75
2021/03/18 00:43:03;;;;;;;4.65;3.50;;;1.80;99.90;;;;;;1904198;75;21492;-76
2021/03/18 00:45:29;;;;;;;7.58;3.77;;;1.90;99.90;;;;;;1907012;75;21602;-75
2021/03/18 00:47:55;;;;;;;4.50;3.75;;;1.90;99.90;;;;;;1898059;75;21558;-76
2021/03/18 00:50:21;;;;;;;5.78;3.45;;;1.90;99.90;;;;;;1902838;75;21158;-75
2021/03/18 00:52:47;;;;;;;4.05;3.25;;;1.90;99.90;;;;;;1900032;75;21049;-75
2021/03/18 00:55:13;;;;;;;4.55;3.62;;;1.90;99.90;;;;;;1901956;75;21088;-76
2021/03/18 00:57:40;;;;;;;4.40;3.37;;;1.90;99.90;;;;;;1860624;76;21079;-77
2021/03/18 01:00:06;;;;;;;7.45;3.92;;;1.90;99.90;;;;;;1894845;75;21080;-76
2021/03/18 01:02:32;;;;;;;5.70;3.35;;;2.00;99.90;;;;;;1859484;76;21199;-75
2021/03/18 01:04:58;;;;;;;5.80;3.90;;;2.00;99.90;;;;;;1902921;75;21150;-77
2021/03/18 01:07:24;;;;;;;5.97;3.72;;;2.10;99.90;;;;;;1899223;75;21079;-76
2021/03/18 01:09:50;;;;;;;5.03;3.58;;;2.10;99.90;;;;;;1900179;75;21052;-76
2021/03/18 01:12:16;;;;;;;5.87;3.92;;;2.10;99.90;;;;;;1902458;75;21048;-77
2021/03/18 01:14:42;;;;;;;5.55;3.08;;;2.10;99.90;;;;;;1863899;76;21102;-77
2021/03/18 01:17:09;;;;;;;4.12;3.37;;;2.10;99.90;;;;;;1900902;75;21075;-76
2021/03/18 01:19:35;;;;;;;4.17;2.90;;;2.10;99.90;;;;;;1896281;75;21157;-75
2021/03/18 01:22:01;;;;;;;4.95;3.65;;;2.00;99.90;;;;;;1902588;75;21395;-75
2021/03/18 01:24:27;;;;;;;4.67;3.52;;;2.00;99.90;;;;;;1865269;76;21075;-75
2021/03/18 01:26:53;;;;;;;5.95;3.33;;;2.10;99.90;;;;;;1907750;75;21087;-75
2021/03/18 01:29:21;;;;;;;7.95;3.47;;;2.00;99.90;;;;;;1896266;75;21079;-76
2021/03/18 01:31:47;;;;;;;4.22;3.37;;;2.00;99.90;;;;;;1906136;75;21154;-75
2021/03/18 01:34:13;;;;;;;4.03;3.52;;;2.00;99.90;;;;;;1866766;76;21060;-76
2021/03/18 01:36:39;;;;;;;7.47;3.70;;;2.00;99.90;;;;;;1898667;75;21060;-76
2021/03/18 01:39:05;;;;;;;4.72;3.33;;;1.90;99.90;;;;;;1907242;75;21158;-76
2021/03/18 01:41:31;;;;;;;3.42;2.87;;;2.00;99.90;;;;;;1861397;76;21153;-75
2021/03/18 01:43:57;;;;;;;3.95;3.10;;;2.00;99.90;;;;;;1896780;75;21082;-76
2021/03/18 01:46:23;;;;;;;4.47;3.08;;;2.00;99.90;;;;;;1902117;75;21099;-76
2021/03/18 01:48:50;;;;;;;4.08;2.85;;;2.00;99.90;;;;;;1894973;75;21088;-76
2021/03/18 01:51:16;;;;;;;3.00;2.70;;;2.00;99.90;;;;;;1863933;76;21515;-75
2021/03/18 01:53:42;;;;;;;7.78;3.47;;;2.00;99.90;;;;;;1910833;75;21543;-76
2021/03/18 01:56:08;;;;;;;4.15;2.70;;;2.00;99.90;;;;;;1867468;76;21564;-76
2021/03/18 01:58:34;;;;;;;4.50;2.98;;;2.10;99.90;;;;;;1902979;75;21092;-75
2021/03/18 02:01:00;;;;;;;4.42;3.10;;;2.10;99.90;;;;;;1867805;76;21086;-75
2021/03/18 02:03:26;;;;;;;5.25;3.37;;;2.10;99.90;;;;;;1868427;75;21161;-75
2021/03/18 02:05:52;;;;;;;3.20;2.67;;;2.10;99.90;;;;;;1874549;75;21087;-75
2021/03/18 02:08:19;;;;;;;5.25;3.27;;;2.10;99.90;;;;;;1862232;75;21099;-75
2021/03/18 02:10:45;;;;;;;4.10;3.10;;;2.00;99.90;;;;;;1862525;75;21103;-76
2021/03/18 02:13:11;;;;;;;8.73;3.80;;;1.90;99.90;;;;;;1879634;76;21377;-75
2021/03/18 02:15:37;;;;;;;6.85;3.60;;;1.90;99.90;;;;;;1879748;76;21409;-75
2021/03/18 02:18:03;;;;;;;3.25;2.95;;;1.90;99.90;;;;;;1847758;76;21488;-76
2021/03/18 02:20:29;;;;;;;5.22;3.27;;;1.90;99.90;;;;;;1847955;78;21484;-75
2021/03/18 02:22:56;;;;;;;7.20;4.17;;;1.90;99.90;;;;;;1847669;75;21158;-75
2021/03/18 02:25:22;;;;;;;6.70;2.70;;;1.80;99.90;;;;;;1858741;76;21099;-77
2021/03/18 02:27:48;;;;;;;4.75;4.03;;;1.80;99.90;;;;;;1868416;75;21095;-75
2021/03/18 02:30:14;;;;;;;3.98;3.42;;;1.80;99.90;;;;;;1879897;76;21087;-75
2021/03/18 02:32:40;;;;;;;4.85;3.37;;;1.80;99.90;;;;;;1866287;75;21586;-75
2021/03/18 02:35:07;;;;;;;3.22;2.92;;;1.80;99.90;;;;;;1858313;76;21449;-75
2021/03/18 02:37:33;;;;;;;5.33;3.40;;;1.80;99.90;;;;;;1862363;75;21450;-76
2021/03/18 02:39:59;;;;;;;5.15;3.55;;;1.80;99.90;;;;;;1879779;76;21080;-75
2021/03/18 02:42:25;;;;;;;7.12;4.58;;;1.70;99.90;;;;;;1879692;76;21165;-75
2021/03/18 02:44:51;;;;;;;3.25;2.72;;;1.70;99.90;;;;;;1869215;75;21088;-75
2021/03/18 02:47:17;;;;;;;3.52;3.22;;;1.60;99.90;;;;;;1853259;75;21075;-75
2021/03/18 02:49:43;;;;;;;4.50;3.37;;;1.60;99.90;;;;;;1847741;75;21155;-76
2021/03/18 02:52:09;;;;;;;8.85;4.35;;;1.60;99.90;;;;;;1847803;75;21090;-76
2021/03/18 02:54:36;;;;;;;10.70;3.90;;;1.60;99.90;;;;;;1861344;75;21064;-75
2021/03/18 02:57:02;;;;;;;4.53;3.85;;;1.70;99.90;;;;;;1850712;76;21205;-75
2021/03/18 02:59:28;;;;;;;7.60;3.95;;;1.70;99.90;;;;;;1873554;75;21162;-75
2021/03/18 03:01:54;;;;;;;9.33;4.17;;;1.80;99.90;;;;;;1879695;75;21091;-74
2021/03/18 03:04:20;;;;;;;7.15;3.95;;;1.80;99.90;;;;;;1855780;75;21101;-75
2021/03/18 03:06:46;;;;;;;7.80;4.28;;;1.80;99.90;;;;;;1860559;75;21594;-75
2021/03/18 03:09:12;;;;;;;7.30;3.50;;;1.80;99.90;;;;;;1852016;76;21552;-75
2021/03/18 03:11:39;;;;;;;6.58;4.53;;;1.90;99.90;;;;;;1862986;75;21470;-76
2021/03/18 03:14:05;;;;;;;9.78;4.15;;;1.90;99.90;;;;;;1863120;75;21166;-75
2021/03/18 03:16:31;;;;;;;6.45;3.83;;;1.90;99.90;;;;;;1879909;76;21056;-75
2021/03/18 03:18:57;;;;;;;9.25;3.90;;;1.90;99.90;;;;;;1873159;76;21095;-75
2021/03/18 03:21:23;;;;;;;8.05;3.98;;;1.90;99.90;;;;;;1870339;76;21154;-76
2021/03/18 03:23:49;;;;;;;6.58;4.45;;;1.90;99.90;;;;;;1879653;76;21161;-75
2021/03/18 03:26:16;;;;;;;8.53;3.85;;;1.90;99.90;;;;;;1864116;75;21234;-74
2021/03/18 03:28:42;;;;;;;6.85;3.27;;;1.90;99.90;;;;;;1849715;75;21132;-75
2021/03/18 03:31:08;;;;;;;4.85;2.90;;;1.90;99.90;;;;;;1868992;76;21084;-75
2021/03/18 03:33:34;;;;;;;9.93;3.83;;;2.00;99.90;;;;;;1871029;75;21159;-75
2021/03/18 03:36:00;;;;;;;4.58;3.05;;;2.00;99.90;;;;;;1865043;76;21097;-75
2021/03/18 03:38:26;;;;;;;3.02;2.60;;;2.00;99.90;;;;;;1875299;75;21053;-75
2021/03/18 03:40:52;;;;;;;2.80;2.33;;;2.10;99.90;;;;;;1879836;76;21122;-75
2021/03/18 03:43:18;;;;;;;2.62;2.05;;;2.10;99.90;;;;;;1879781;76;21076;-74
2021/03/18 03:45:44;;;;;;;4.47;2.50;;;2.10;99.90;;;;;;1880122;76;21108;-75
2021/03/18 03:48:11;;;;;;;3.30;2.30;;;2.00;99.90;;;;;;1872101;76;21108;-74
2021/03/18 03:50:37;;;;;;;3.65;2.60;;;2.00;99.90;;;;;;1859180;76;21586;-76
2021/03/18 03:53:03;;;;;;;4.62;2.98;;;1.90;99.90;;;;;;1852985;75;21583;-75
2021/03/18 03:55:29;;;;;;;7.62;2.60;;;1.90;99.90;;;;;;1852911;75;21469;-75
2021/03/18 03:57:55;;;;;;;9.28;3.02;;;1.90;99.90;;;;;;1847777;76;21091;-76
2021/03/18 04:00:21;;;;;;;3.55;2.70;;;1.90;99.90;;;;;;1856642;75;21165;-75
2021/03/18 04:02:47;;;;;;;3.05;2.30;;;1.80;99.90;;;;;;1879145;75;21093;-75
2021/03/18 04:05:13;;;;;;;5.92;2.85;;;1.80;99.90;;;;;;1850908;76;21085;-76
2021/03/18 04:07:40;;;;;;;6.30;2.62;;;1.80;99.90;;;;;;1867896;75;21068;-75
2021/03/18 04:10:06;;;;;;;3.95;2.20;;;1.80;99.90;;;;;;1865845;75;21096;-75
2021/03/18 04:12:32;;;;;;;2.62;2.40;;;1.80;99.90;;;;;;1879662;76;21104;-75
2021/03/18 04:14:58;;;;;;;2.92;2.33;;;1.80;99.90;;;;;;1849588;75;21133;-75
2021/03/18 04:17:24;;;;;;;4.87;2.62;;;1.80;99.90;;;;;;1836549;75;21147;-75
2021/03/18 04:19:50;;;;;;;3.72;2.47;;;1.90;99.90;;;;;;1859132;76;21170;-75
2021/03/18 04:22:16;;;;;;;6.47;2.58;;;1.90;99.90;;;;;;1860434;76;21105;-76
2021/03/18 04:24:42;;;;;;;2.90;2.30;;;1.90;99.90;;;;;;1866865;76;21527;-76
2021/03/18 04:27:09;;;;;;;7.12;2.92;;;1.90;99.90;;;;;;1861878;76;21584;-76
2021/03/18 04:29:37;;;;;;;8.08;3.50;;;2.00;99.90;;;;;;1912023;75;21500;-76
2021/03/18 04:32:04;;;;;;;5.65;3.47;;;2.00;99.90;;;;;;1863950;76;21212;-76
2021/03/18 04:34:30;;;;;;;3.98;3.37;;;2.00;99.90;;;;;;1909921;75;21116;-76
2021/03/18 04:36:56;;;;;;;4.33;2.45;;;2.10;99.90;;;;;;1859105;76;21095;-76
2021/03/18 04:39:22;;;;;;;3.60;2.83;;;2.00;99.90;;;;;;1900020;75;21077;-77
2021/03/18 04:41:49;;;;;;;5.95;3.37;;;2.00;99.90;;;;;;1899979;75;21075;-75
2021/03/18 04:44:15;;;;;;;4.53;3.33;;;2.00;99.90;;;;;;1861744;76;21089;-75
2021/03/18 04:46:41;;;;;;;3.72;2.50;;;2.00;99.90;;;;;;1903538;75;21090;-76
2021/03/18 04:49:07;;;;;;;5.33;2.85;;;1.90;99.90;;;;;;1903499;75;21417;-75
2021/03/18 04:51:33;;;;;;;5.28;3.12;;;1.90;99.90;;;;;;1902317;75;21521;-74
2021/03/18 04:53:59;;;;;;;2.20;2.00;;;2.00;99.90;;;;;;1905862;75;21532;-76
2021/03/18 04:56:25;;;;;;;4.28;2.20;;;2.00;99.90;;;;;;1896232;75;21145;-75
2021/03/18 04:58:51;;;;;;;9.93;2.47;;;2.00;99.90;;;;;;1905185;75;21087;-77
2021/03/18 05:01:18;;;;;;;2.87;2.20;;;2.00;99.90;;;;;;1871276;76;21086;-75
2021/03/18 05:03:44;;;;;;;3.70;2.37;;;2.00;99.90;;;;;;1903306;75;21087;-76
2021/03/18 05:06:10;;;;;;;2.10;1.92;;;1.90;99.90;;;;;;1904769;75;21045;-75
2021/03/18 05:08:36;;;;;;;3.55;1.77;;;2.00;99.90;;;;;;1864900;76;21051;-75
2021/03/18 05:11:02;;;;;;;3.00;1.92;;;1.90;99.90;;;;;;1900349;75;21208;-76
2021/03/18 05:13:28;;;;;;;2.67;1.75;;;2.00;99.90;;;;;;1904888;75;21087;-75
2021/03/18 05:15:54;;;;;;;3.25;1.90;;;1.90;99.90;;;;;;1861174;76;21102;-76
2021/03/18 05:18:20;;;;;;;2.55;1.98;;;1.90;99.90;;;;;;1907846;74;21087;-76
2021/03/18 05:20:46;;;;;;;4.65;2.40;;;1.90;99.90;;;;;;1908319;75;21099;-76
2021/03/18 05:23:13;;;;;;;2.42;2.20;;;1.90;99.90;;;;;;1860480;76;21570;-76
2021/03/18 05:25:39;;;;;;;4.72;2.20;;;2.00;99.90;;;;;;1910257;75;21473;-75
2021/03/18 05:28:05;;;;;;;2.87;1.90;;;1.90;99.90;;;;;;1866060;76;21584;-76
2021/03/18 05:30:31;;;;;;;2.98;2.20;;;2.00;99.90;;;;;;1909839;75;21166;-76
2021/03/18 05:32:57;;;;;;;3.60;2.10;;;1.90;99.90;;;;;;1862329;76;21102;-76
2021/03/18 05:35:23;;;;;;;2.30;2.05;;;1.90;99.90;;;;;;1904606;75;21141;-75
2021/03/18 05:37:49;;;;;;;3.83;2.27;;;1.90;99.90;;;;;;1867530;76;21082;-74
2021/03/18 05:40:15;;;;;;;3.33;1.95;;;1.80;99.90;;;;;;1899298;75;21084;-76
2021/03/18 05:42:42;;;;;;;2.45;2.05;;;1.90;99.90;;;;;;1902270;75;21048;-75
2021/03/18 05:45:08;;;;;;;3.08;1.75;;;1.90;99.90;;;;;;1864529;76;21136;-75
2021/03/18 05:47:34;;;;;;;5.28;2.45;;;2.00;99.90;;;;;;1910229;75;21088;-75
2021/03/18 05:50:00;;;;;;;5.72;2.25;;;2.00;99.90;;;;;;1865782;76;21086;-76
2021/03/18 05:52:26;;;;;;;4.37;2.62;;;2.00;99.90;;;;;;1873520;75;21171;-75
2021/03/18 05:54:52;;;;;;;2.10;1.90;;;2.00;99.90;;;;;;1881182;75;21169;-76
2021/03/18 05:57:18;;;;;;;3.65;2.08;;;1.90;99.90;;;;;;1882156;76;21162;-76
2021/03/18 05:59:44;;;;;;;2.05;1.95;;;2.00;99.90;;;;;;1858376;75;21501;-76
2021/03/18 06:02:10;;;;;;;4.10;2.60;;;2.00;99.90;;;;;;1883226;75;21488;-75
2021/03/18 06:04:37;;;;;;;4.15;2.42;;;2.10;99.90;;;;;;1882563;76;21087;-75
2021/03/18 06:07:03;;;;;;;3.45;2.37;;;2.10;99.90;;;;;;1884773;76;21134;-75
2021/03/18 06:09:29;;;;;;;5.33;2.50;;;2.20;99.90;;;;;;1848261;75;22527;-76
2021/03/18 06:11:56;;;;;;;7.12;2.47;;;2.20;99.90;;;;;;1852043;75;21229;-76
2021/03/18 06:14:24;;;;;;;5.03;2.60;;;2.20;99.90;;;;;;1858765;75;21154;-76
2021/03/18 06:16:50;;;;;;;3.47;2.35;;;2.10;99.90;;;;;;1865094;75;21092;-76
2021/03/18 06:19:16;;;;;;;4.35;2.62;;;2.10;99.90;;;;;;1858663;76;21079;-75
2021/03/18 06:21:42;;;;;;;8.53;2.65;;;2.20;99.90;;;;;;1847732;75;21171;-75
2021/03/18 06:24:08;;;;;;;4.55;2.37;;;2.30;99.90;;;;;;1871651;76;21080;-76
2021/03/18 06:26:34;;;;;;;8.90;2.27;;;2.30;99.90;;;;;;1865282;75;21103;-76
2021/03/18 06:29:00;;;;;;;5.05;2.42;;;2.50;99.90;;;;;;1858675;75;21092;-73
2021/03/18 06:31:27;;;;;;;3.50;2.67;;;2.60;99.90;;;;;;1858462;75;21178;-78
2021/03/18 06:33:54;;;;;;;3.62;2.83;;;2.70;99.90;;;;;;1865372;75;21165;-79
2021/03/18 06:36:20;;;;;;;5.35;2.83;;;2.80;99.90;;;;;;1863194;75;21087;-79
2021/03/18 06:38:46;;;;;;;3.65;2.67;;;2.70;99.90;;;;;;1861316;75;21053;-79
2021/03/18 06:41:13;;;;;;;4.97;2.47;;;3.00;99.90;;;;;;1850590;75;21128;-77
2021/03/18 06:43:39;;;;;;;4.62;2.05;;;3.10;99.90;;;;;;1864450;75;21157;-78
2021/03/18 06:46:05;;;;;;;9.03;2.27;;;3.10;99.90;;;;;;1867949;75;21105;-79
2021/03/18 06:48:31;;;;;;;2.60;2.02;;;3.20;99.90;;;;;;1870794;75;21492;-79
2021/03/18 06:50:57;;;;;;;18.92;2.52;;;3.20;99.90;;;;;;1857568;75;21506;-79
2021/03/18 06:53:24;;;;;;;5.85;2.35;;;3.10;99.90;;;;;;1861446;75;21556;-78
2021/03/18 06:55:50;;;;;;;2.25;2.05;;;3.00;99.90;;;;;;1851694;75;21167;-78
2021/03/18 06:58:17;;;;;;;3.50;2.58;;;3.10;99.90;;;;;;1862287;75;21158;-77
2021/03/18 07:00:43;;;;;;;4.50;2.27;;;3.20;99.90;;;;;;1879591;75;21096;-77
2021/03/18 07:03:10;;;;;;;3.95;2.15;;;3.10;99.90;;;;;;1855873;75;21487;-77
2021/03/18 07:05:36;;;;;;;3.95;2.25;;;3.30;99.90;;;;;;1874865;75;21096;-77
2021/03/18 07:08:02;;;;;;;6.20;2.85;;;3.40;99.90;;;;;;1878344;76;21289;-77
2021/03/18 07:10:28;;;;;;;2.27;2.02;;;3.30;99.90;;;;;;1862180;75;21514;-78
2021/03/18 07:12:54;;;;;;;5.70;2.40;;;3.40;99.90;;;;;;1879638;76;21475;-79
2021/03/18 07:15:20;;;;;;;4.47;2.40;;;3.50;99.90;;;;;;1879659;76;21093;-77
2021/03/18 07:17:48;;;;;;;4.30;3.15;;;3.40;99.90;;;;;;1879759;76;21141;-78
2021/03/18 07:20:14;;;;;;;4.70;2.67;;;3.20;99.90;;;;;;1879540;75;21169;-78
2021/03/18 07:22:40;;;;;;;2.58;2.08;;;3.30;99.90;;;;;;1879809;75;21461;-80
2021/03/18 07:25:06;;;;;;;4.55;2.15;;;3.50;99.90;;;;;;1879772;76;21056;-78
2021/03/18 07:27:33;;;;;;;8.85;2.47;;;3.70;99.90;;;;;;1873750;75;21108;-78
2021/03/18 07:29:59;;;;;;;6.62;2.40;;;3.90;99.90;;;;;;1879556;76;21080;-78
2021/03/18 07:32:25;;;;;;;2.83;1.87;;;4.00;99.90;;;;;;1879659;76;21161;-79
2021/03/18 07:34:53;;;;;;;4.15;2.22;;;4.10;99.90;;;;;;1874304;75;21167;-78
2021/03/18 07:37:20;;;;;;;3.80;2.02;;;4.20;99.90;;;;;;1867658;75;21125;-77
2021/03/18 07:39:46;;;;;;;6.70;2.40;;;4.30;99.90;;;;;;1856282;76;21167;-78
2021/03/18 07:42:12;;;;;;;4.47;2.50;;;4.30;99.90;;;;;;1856070;75;21152;-78
2021/03/18 07:44:38;;;;;;;8.68;2.87;;;4.00;99.90;;;;;;1873581;76;21092;-78
2021/03/18 07:47:04;;;;;;;5.97;2.90;;;4.00;99.90;;;;;;1856903;75;21057;-79
2021/03/18 07:49:30;;;;;;;7.15;2.90;;;4.30;99.90;;;;;;1872805;76;21180;-78
2021/03/18 07:51:56;;;;;;;4.40;2.72;;;4.40;99.90;;;;;;1869792;75;21501;-78
2021/03/18 07:54:23;;;;;;;12.63;2.65;;;4.60;99.90;;;;;;1865855;75;21612;-78
2021/03/18 07:56:49;;;;;;;4.97;2.62;;;4.40;99.90;;;;;;1879812;76;21562;-78
2021/03/18 07:59:15;;;;;;;5.62;2.90;;;4.30;99.90;;;;;;1861686;75;21066;-79
2021/03/18 08:01:41;;;;;;;9.48;3.05;;;4.20;99.90;;;;;;1863173;75;21088;-77
2021/03/18 08:04:07;;;;;;;3.95;2.25;;;4.00;99.90;;;;;;1861647;75;21104;-79
2021/03/18 08:06:36;;;;;;;5.50;2.83;;;4.10;99.90;;;;;;1857576;75;21081;-80
2021/03/18 08:09:02;;;;;;;4.10;2.80;;;4.40;99.90;;;;;;1856722;76;21123;-79
2021/03/18 08:11:28;;;;;;;6.45;2.90;;;4.50;99.90;;;;;;1879545;75;21096;-79
2021/03/18 08:13:55;;;;;;;5.85;2.83;;;4.70;99.90;;;;;;1874273;75;21099;-79
2021/03/18 08:16:21;;;;;;;3.20;2.67;;;4.30;99.90;;;;;;1872579;75;21101;-77
2021/03/18 08:18:47;;;;;;;6.62;3.15;;;4.30;99.90;;;;;;1851588;75;21458;-79
2021/03/18 08:21:13;;;;;;;11.75;3.40;;;4.20;99.90;;;;;;1849121;76;21527;-79
2021/03/18 08:23:39;;;;;;;6.62;3.47;;;4.30;99.90;;;;;;1847679;75;21081;-79
2021/03/18 08:26:05;;;;;;;6.00;3.08;;;4.40;99.90;;;;;;1847814;76;21049;-79
2021/03/18 08:28:31;;;;;;;9.10;3.02;;;4.80;99.90;;;;;;1853043;75;21103;-79
2021/03/18 08:30:57;;;;;;;4.45;3.22;;;5.30;99.90;;;;;;1853445;75;21096;-79
2021/03/18 08:33:24;;;;;;;6.80;3.22;;;5.60;99.90;;;;;;1852930;75;21489;-79
2021/03/18 08:35:50;;;;;;;3.95;2.87;;;6.30;99.90;;;;;;1869911;75;21585;-80
2021/03/18 08:38:16;;;;;;;4.33;3.17;;;6.70;99.90;;;;;;1855619;75;21528;-79
2021/03/18 08:40:42;;;;;;;8.30;3.37;;;6.50;99.90;;;;;;1851949;76;21084;-79
2021/03/18 08:43:08;;;;;;;4.28;2.77;;;6.50;99.90;;;;;;1849695;76;21154;-78
2021/03/18 08:45:35;;;;;;;6.28;3.42;;;6.50;99.90;;;;;;1879158;75;21149;-79
2021/03/18 08:48:01;;;;;;;5.12;2.92;;;6.30;99.90;;;;;;1868759;75;21523;-79
2021/03/18 08:50:27;;;;;;;9.18;3.60;;;6.00;99.90;;;;;;1879673;76;21145;-79
2021/03/18 08:52:53;;;;;;;5.87;3.40;;;5.50;99.90;;;;;;1853420;75;21124;-79
2021/03/18 08:55:19;;;;;;;5.58;2.92;;;5.50;99.90;;;;;;1865335;75;21091;-79
2021/03/18 08:57:45;;;;;;;5.42;3.60;;;5.80;99.90;;;;;;1862927;75;21093;-79
2021/03/18 09:00:12;;;;;;;4.92;3.00;;;5.90;99.90;;;;;;1858979;76;21068;-79
2021/03/18 09:02:38;;;;;;;6.17;3.20;;;5.90;99.90;;;;;;1847711;75;21081;-79
2021/03/18 09:05:04;;;;;;;4.40;2.80;;;5.80;99.90;;;;;;1858368;75;21072;-79
2021/03/18 09:07:31;;;;;;;5.08;3.12;;;5.90;99.90;;;;;;1860049;75;21157;-79
2021/03/18 09:09:57;;;;;;;6.53;3.40;;;5.80;99.90;;;;;;1842704;76;21079;-80
2021/03/18 09:12:23;;;;;;;4.20;2.85;;;5.50;99.90;;;;;;1884425;76;21197;-79
2021/03/18 09:14:49;;;;;;;5.22;3.42;;;5.00;99.90;;;;;;1852041;75;21092;-79
2021/03/18 09:17:15;;;;;;;8.23;3.30;;;4.90;99.90;;;;;;1855412;75;21079;-79
2021/03/18 09:19:41;;;;;;;16.25;3.80;;;5.10;99.90;;;;;;1879845;76;21048;-79
2021/03/18 09:22:07;;;;;;;7.75;2.77;;;5.40;99.90;;;;;;1850498;75;21096;-79
2021/03/18 09:24:34;;;;;;;4.47;2.40;;;5.40;99.90;;;;;;1879770;76;21095;-79
2021/03/18 09:27:00;;;;;;;7.28;2.80;;;5.50;99.90;;;;;;1855075;75;21085;-79
2021/03/18 09:29:26;;;;;;;3.98;2.77;;;5.50;99.90;;;;;;1875231;75;21096;-79
2021/03/18 09:31:52;;;;;;;6.50;3.02;;;5.50;99.90;;;;;;1879734;75;21084;-80
2021/03/18 09:34:18;;;;;;;7.40;3.40;;;5.60;99.90;;;;;;1857520;75;21089;-79
2021/03/18 09:36:44;;;;;;;5.00;3.15;;;5.40;99.90;;;;;;1858971;75;21049;-80
2021/03/18 09:39:10;;;;;;;4.35;2.72;;;5.20;99.90;;;;;;1872743;76;21092;-80
2021/03/18 09:41:36;;;;;;;8.93;3.12;;;5.30;99.90;;;;;;1880258;75;21095;-79
2021/03/18 09:44:03;;;;;;;5.80;3.02;;;5.30;99.90;;;;;;1854033;75;21091;-80
2021/03/18 09:46:29;;;;;;;5.95;3.20;;;5.30;99.90;;;;;;1864118;75;21156;-79
2021/03/18 09:48:55;;;;;;;6.15;2.67;;;5.20;99.90;;;;;;1881150;76;21049;-79
2021/03/18 09:51:22;;;;;;;3.47;2.55;;;5.10;99.90;;;;;;1875911;76;21091;-79
2021/03/18 09:53:48;;;;;;;8.58;3.50;;;5.40;99.90;;;;;;1874346;75;21066;-80
2021/03/18 09:56:14;;;;;;;6.72;3.12;;;5.50;99.90;;;;;;1847593;76;21097;-79
2021/03/18 09:58:40;;;;;;;6.12;3.10;;;5.70;99.90;;;;;;1853003;75;21135;-80
2021/03/18 10:01:06;;;;;;;2.92;2.62;;;5.80;99.90;;;;;;1879423;76;21083;-79
2021/03/18 10:03:32;;;;;;;8.38;3.22;;;6.10;99.90;;;;;;1871933;76;21147;-79
2021/03/18 10:05:59;;;;;;;4.37;2.83;;;6.30;99.90;;;;;;1880743;75;21057;-79
2021/03/18 10:08:25;;;;;;;12.10;3.22;;;6.40;99.90;;;;;;1864242;75;21088;-80
2021/03/18 10:10:51;;;;;;;2.92;2.40;;;6.30;99.90;;;;;;1881817;76;21146;-80
2021/03/18 10:13:17;;;;;;;6.50;3.00;;;6.50;99.90;;;;;;1880721;76;21107;-79
2021/03/18 10:15:43;;;;;;;7.60;2.80;;;6.50;99.90;;;;;;1880606;75;21136;-79
2021/03/18 10:18:10;;;;;;;8.85;3.27;;;6.20;99.90;;;;;;1868491;76;21088;-79
2021/03/18 10:20:36;;;;;;;6.47;2.77;;;6.00;99.90;;;;;;1880088;76;21157;-78
2021/03/18 10:23:02;;;;;;;4.55;2.45;;;5.90;99.90;;;;;;1879843;76;21189;-79
2021/03/18 10:25:28;;;;;;;6.35;2.70;;;5.80;99.90;;;;;;1867793;75;21084;-79
2021/03/18 10:27:54;;;;;;;4.03;2.58;;;5.60;99.90;;;;;;1847615;75;21513;-79
2021/03/18 10:30:21;;;;;;;8.18;2.70;;;5.80;99.90;;;;;;1859027;75;21531;-78
2021/03/18 10:32:47;;;;;;;4.33;2.83;;;6.00;99.90;;;;;;1847615;75;21528;-78
2021/03/18 10:35:13;;;;;;;5.37;2.90;;;6.20;99.90;;;;;;1851531;75;21120;-78
2021/03/18 10:37:39;;;;;;;3.65;2.05;;;6.20;99.90;;;;;;1854833;75;21089;-78
2021/03/18 10:40:05;;;;;;;18.23;2.62;;;6.30;99.90;;;;;;1870075;75;21153;-78
2021/03/18 10:42:32;;;;;;;6.83;2.70;;;6.40;99.90;;;;;;1865001;75;21163;-78
2021/03/18 10:44:58;;;;;;;9.93;2.58;;;6.40;99.90;;;;;;1871126;75;21100;-80
2021/03/18 10:47:24;;;;;;;3.40;2.30;;;6.50;99.90;;;;;;1877198;76;21096;-79
2021/03/18 10:49:50;;;;;;;4.72;2.50;;;6.60;99.90;;;;;;1876235;75;21109;-80
2021/03/18 10:52:16;;;;;;;5.80;2.95;;;6.40;99.90;;;;;;1857012;75;21502;-79
2021/03/18 10:54:43;;;;;;;14.10;4.60;;;6.70;99.90;;;;;;1878144;75;21505;-80
2021/03/18 10:57:09;;;;;;;6.65;2.47;;;7.00;99.90;;;;;;1855913;75;21158;-79
2021/03/18 10:59:36;;;;;;;10.10;2.37;;;6.80;99.90;;;;;;1873605;75;21091;-80
2021/03/18 11:02:02;;;;;;;2.87;2.10;;;6.80;99.90;;;;;;1879706;76;21417;-80
2021/03/18 11:04:29;;;;;;;3.50;2.22;;;6.70;99.90;;;;;;1860651;75;21163;-80
2021/03/18 11:06:55;;;;;;;3.65;2.47;;;7.10;99.90;;;;;;1847743;75;21089;-80
2021/03/18 11:09:21;;;;;;;19.82;3.85;;;7.00;99.90;;;;;;1861269;76;21041;-80
2021/03/18 11:11:47;;;;;;;12.63;2.87;;;7.20;99.90;;;;;;1875327;75;21803;-80
2021/03/18 11:14:13;;;;;;;14.40;3.45;;;7.50;99.90;;;;;;1864261;75;21147;-80
2021/03/18 11:16:40;;;;;;;12.95;2.72;;;7.40;99.90;;;;;;1871753;75;21096;-80
2021/03/18 11:19:07;;;;;;;3.40;2.40;;;7.30;99.90;;;;;;1850947;76;21117;-80
2021/03/18 11:21:34;;;;;;;4.33;2.42;;;7.30;99.90;;;;;;1883228;76;21064;-80
2021/03/18 11:24:02;;;;;;;7.97;2.45;;;7.50;99.90;;;;;;1864941;75;21062;-78
2021/03/18 11:26:28;;;;;;;5.00;2.22;;;7.50;99.90;;;;;;1848698;75;21122;-80
2021/03/18 11:28:54;;;;;;;4.47;2.40;;;7.60;99.90;;;;;;1858036;75;21169;-80
2021/03/18 11:31:20;;;;;;;4.45;2.10;;;7.40;99.90;;;;;;1847641;75;21151;-80
2021/03/18 11:33:46;;;;;;;3.60;1.90;;;7.20;99.90;;;;;;1876724;75;21499;-79
2021/03/18 11:36:13;;;;;;;3.05;1.70;;;7.40;99.90;;;;;;1874800;75;21547;-78
2021/03/18 11:38:39;;;;;;;5.47;2.00;;;7.30;99.90;;;;;;1853328;75;21097;-81
2021/03/18 11:41:05;;;;;;;2.10;1.90;;;7.70;99.90;;;;;;1875748;76;21089;-80
2021/03/18 11:43:31;;;;;;;4.58;1.77;;;8.40;99.90;;;;;;1858143;75;21500;-79
2021/03/18 11:45:57;;;;;;;2.85;1.50;;;8.70;99.90;;;;;;1855307;75;21497;-78
2021/03/18 11:48:23;;;;;;;4.67;1.57;;;9.20;99.90;;;;;;1872539;75;21491;-79
2021/03/18 11:50:50;;;;;;;2.77;1.90;;;9.30;99.90;;;;;;1874360;75;21149;-79
2021/03/18 11:53:16;;;;;;;4.90;2.15;;;9.00;99.90;;;;;;1855397;76;21096;-79
2021/03/18 11:55:42;;;;;;;2.58;1.92;;;8.80;99.90;;;;;;1875162;76;21146;-78
2021/03/18 11:58:08;;;;;;;3.40;1.87;;;8.60;99.90;;;;;;1864834;75;21236;-79
2021/03/18 12:00:35;;;;;;;3.02;1.98;;;8.50;99.90;;;;;;1847460;75;21057;-78
2021/03/18 12:03:01;;;;;;;3.83;2.00;;;8.60;99.90;;;;;;1847672;75;21096;-79
2021/03/18 12:05:27;;;;;;;8.63;1.98;;;8.50;99.90;;;;;;1847511;76;21088;-79
2021/03/18 12:07:53;;;;;;;4.30;2.33;;;8.10;99.90;;;;;;1877284;76;21064;-79
2021/03/18 12:10:19;;;;;;;4.00;2.47;;;8.00;99.90;;;;;;1879670;76;21083;-79
2021/03/18 12:12:46;;;;;;;4.05;1.82;;;7.70;99.90;;;;;;1862238;75;21157;-79
2021/03/18 12:15:12;;;;;;;2.70;1.85;;;7.90;99.90;;;;;;1879631;76;21519;-77
2021/03/18 12:17:38;;;;;;;3.47;1.95;;;7.90;99.90;;;;;;1869056;75;21469;-78
2021/03/18 12:20:04;;;;;;;2.87;1.75;;;7.40;99.90;;;;;;1879088;75;21472;-79
2021/03/18 12:22:30;;;;;;;4.60;2.25;;;7.00;99.90;;;;;;1879618;76;21476;-79
2021/03/18 12:24:56;;;;;;;8.00;2.02;;;7.00;99.90;;;;;;1858395;75;21088;-79
2021/03/18 12:27:22;;;;;;;3.62;2.05;;;7.20;99.90;;;;;;1858900;75;21153;-80
2021/03/18 12:29:48;;;;;;;4.92;1.72;;;7.40;99.90;;;;;;1862961;76;21072;-79
2021/03/18 12:32:15;;;;;;;3.70;2.22;;;7.70;99.90;;;;;;1867562;75;21158;-79
2021/03/18 12:34:41;;;;;;;3.67;1.82;;;7.60;99.90;;;;;;1869246;75;21056;-79
2021/03/18 12:37:07;;;;;;;1.90;1.60;;;7.60;99.90;;;;;;1879648;75;21072;-79
2021/03/18 12:39:33;;;;;;;40.98;5.50;;;7.50;99.90;;;;;;1879619;76;21052;-79
2021/03/18 12:41:59;;;;;;;4.00;1.45;;;7.30;99.90;;;;;;1851603;75;21085;-79
2021/03/18 12:44:25;;;;;;;2.85;1.85;;;7.30;99.90;;;;;;1863245;76;21096;-79
2021/03/18 12:46:51;;;;;;;2.62;1.60;;;6.80;99.90;;;;;;1847588;75;21054;-79
2021/03/18 12:49:17;;;;;;;2.55;1.80;;;6.50;99.90;;;;;;1871197;75;21092;-79
2021/03/18 12:51:44;;;;;;;1.50;1.40;;;6.30;99.90;;;;;;1868314;75;21130;-79